• Join FlightAware (Why Join?)
  • Login
  • US Flag 
08:25AM EDT


 

Airport Tracker/Info


-or-


 

Live Flight TrackerFlight Track Log ✈ ASQ6151 ✈ 30-Apr-2013 ✈ KORD - KRAP

Flight Track Log - Related Links

Times and Time Zones

All times are in EDT time to prevent confusion due to time zone crossing. See the ASQ6151 flight status page for this flight to view local times or setup timezone preferences in your user account.

Time Position Orientation Groundspeed Altitude Reporting Facility
EDT Latitude Longitude Course Direction KTS MPH feet Rate Location/Type
01:34PM 41.9667 -87.9833 270° West 192 221 3,200  Level Chicago TRACON
01:35PM 41.9667 -88.0500 270° West 220 253 4,900 1,680 Climbing Chicago TRACON
01:36PM 41.9667 -88.1500 270° West 237 273 6,600 2,040 Climbing Chicago TRACON
01:37PM 42.0133 -88.2361 306° West 263 303 9,500 2,220 Climbing Chicago Center
01:38PM 42.0267 -88.3297 281° West 266 306 11,700 1,680 Climbing Chicago Center
01:39PM 42.0311 -88.4328 273° West 274 315 13,000 1,320 Climbing Chicago Center
01:40PM 41.9667 -88.7371 270° West  Level FlightAware Approximate
01:40PM 42.0508 -88.5722 281° West 320 368 14,500  Level Chicago Center
01:42PM 42.0706 -88.6928 282° West 331 381 16,000 1,380 Climbing Chicago Center
01:43PM 42.0728 -88.8181 271° West 337 388 17,400 1,440 Climbing Chicago Center
01:44PM 42.0739 -88.9394 271° West 336 387 19,000 1,560 Climbing Chicago Center
01:45PM 42.0739 -89.0922 270° West 346 398 20,700 1,500 Climbing Chicago Center
01:46PM 42.0703 -89.2297 268° West 354 407 22,200 1,440 Climbing Chicago Center
01:47PM 42.0644 -89.3642 267° West 360 414 23,700 1,320 Climbing Chicago Center
01:48PM 42.0644 -89.4961 270° West 359 413 25,000 1,140 Climbing Chicago Center
01:49PM 42.0683 -89.6461 272° West 369 425 26,100 900 Climbing Chicago Center
01:50PM 42.0644 -89.7700 268° West 373 429 26,900 900 Climbing Chicago Center
01:51PM 42.0667 -89.9275 271° West 384 442 28,000 960 Climbing Chicago Center
01:52PM 42.0683 -90.0711 271° West 388 447 29,000 960 Climbing Chicago Center
01:53PM 42.0697 -90.2136 271° West 385 443 30,000 960 Climbing Chicago Center
01:54PM 42.0717 -90.3853 271° West 385 443 31,100 960 Climbing Chicago Center
01:55PM 42.0714 -90.5319 270° West 392 451 32,100 960 Climbing Chicago Center
01:56PM 42.0719 -90.6794 270° West 396 456 33,100 960 Climbing Chicago Center
01:57PM 42.0736 -90.8269 271° West 397 457 34,100 900 Climbing Chicago Center
01:58PM 42.0792 -90.9750 273° West 398 458 35,000 900 Climbing Chicago Center
01:59PM 42.0903 -91.1528 275° West 399 459 36,000 480 Climbing Chicago Center
02:00PM 42.1011 -91.3014 276° West 400 460 36,000  Level Chicago Center
02:01PM 42.1114 -91.4519 275° West 404 465 36,000  Level Chicago Center
02:02PM 42.1219 -91.5997 276° West 400 460 36,000  Level Chicago Center
02:03PM 42.1322 -91.7458 275° West 395 455 36,000  Level Chicago Center
02:04PM 42.1428 -91.8897 276° West 389 448 36,000  Level Chicago Center
02:05PM 42.1650 -92.0597 280° West 386 444 36,000  Level Chicago Center
02:06PM 42.1839 -92.1775 282° West 389 448 36,000  Level Minneapolis Center
02:07PM 42.2056 -92.3175 282° West 387 445 36,000  Level Minneapolis Center
02:08PM 42.2289 -92.4583 283° West 387 445 36,000  Level Minneapolis Center
02:09PM 42.2628 -92.6258 285° West 387 445 36,000  Level Minneapolis Center
02:10PM 42.2903 -92.7622 285° West 382 440 36,000  Level Minneapolis Center
02:11PM 42.3178 -92.8975 285° West 377 434 36,000  Level Minneapolis Center
02:12PM 42.3478 -93.0350 286° West 383 441 36,000  Level Minneapolis Center
02:13PM 42.4067 -93.1564 303° West 387 445 36,000  Level Minneapolis Center
02:14PM 42.4694 -93.3050 300° West 384 442 36,000  Level Minneapolis Center
02:15PM 42.5133 -93.4328 295° West 379 436 36,000  Level Minneapolis Center
02:17PM 42.5622 -93.5642 297° West 388 447 36,000  Level Minneapolis Center
02:18PM 42.6136 -93.6992 297° West 400 460 36,000  Level Minneapolis Center
02:19PM 42.6636 -93.8306 297° West 398 458 36,000  Level Minneapolis Center
02:20PM 42.7239 -93.9881 298° West 396 456 36,000  Level Minneapolis Center
02:21PM 42.7844 -94.1147 303° West 397 457 36,000  Level Minneapolis Center
02:22PM 42.8428 -94.2381 303° West 397 457 36,000  Level Minneapolis Center
02:23PM 42.8922 -94.3689 297° West 394 453 36,000  Level Minneapolis Center
02:24PM 42.9264 -94.4783 293° West 388 447 36,000  Level Minneapolis Center
02:25PM 42.9778 -94.6389 294° West 386 444 36,000  Level Minneapolis Center
02:26PM 43.0128 -94.7772 289° West 385 443 36,000  Level Minneapolis Center
02:27PM 43.0525 -94.9447 288° West 387 445 36,000  Level Minneapolis Center
02:28PM 43.0881 -95.0833 289° West 387 445 36,000  Level Minneapolis Center
02:29PM 43.1250 -95.2217 290° West 387 445 36,000  Level Minneapolis Center
02:30PM 43.1686 -95.3558 294° West 387 445 36,000  Level Minneapolis Center
02:31PM 43.2111 -95.4917 293° West 387 445 36,000  Level Minneapolis Center
02:32PM 43.2522 -95.6256 293° West 384 442 36,000  Level Minneapolis Center
02:33PM 43.2942 -95.7572 294° West 380 437 36,000  Level Minneapolis Center
02:34PM 43.3453 -95.9133 294° West 376 433 36,000  Level Minneapolis Center
02:35PM 43.3872 -96.0439 294° West 374 430 36,000  Level Minneapolis Center
02:36PM 43.4308 -96.1731 295° West 372 428 36,000  Level Minneapolis Center
02:37PM 43.4742 -96.3006 295° West 370 426 36,000  Level Minneapolis Center
02:38PM 43.5292 -96.4531 296° West 369 425 36,000  Level Minneapolis Center
02:39PM 43.5803 -96.5761 300° West 371 427 36,000  Level Minneapolis Center
02:40PM 43.6319 -96.7006 300° West 373 429 36,000  Level Minneapolis Center
02:41PM 43.6906 -96.8492 299° West 367 422 36,000  Level Minneapolis Center
02:43PM 43.7083 -97.0108 279° West 355 409 36,000  Level Minneapolis Center
02:44PM 43.6836 -97.1400 255° West 351 404 36,000  Level Minneapolis Center
02:45PM 43.6842 -97.2750 270° West 353 406 36,000  Level Minneapolis Center
02:46PM 43.6953 -97.4086 277° West 351 404 36,000  Level Minneapolis Center
02:47PM 43.7053 -97.5428 276° West 353 406 36,000  Level Minneapolis Center
02:48PM 43.7125 -97.6767 274° West 350 403 36,000  Level Minneapolis Center
02:49PM 43.7219 -97.8367 275° West 349 402 36,000  Level Minneapolis Center
02:50PM 43.7289 -97.9442 275° West 351 404 36,000  Level Minneapolis Center
02:51PM 43.7397 -98.1028 275° West 348 400 36,000  Level Minneapolis Center
02:52PM 43.7486 -98.2353 275° West 346 398 36,000  Level Minneapolis Center
02:53PM 43.7578 -98.3672 276° West 347 399 36,000  Level Minneapolis Center
02:54PM 43.7678 -98.4981 276° West 343 395 36,000  Level Minneapolis Center
02:55PM 43.7758 -98.6033 276° West 344 396 36,000  Level Minneapolis Center
02:56PM 43.7897 -98.7731 277° West 343 395 36,000  Level Minneapolis Center
02:57PM 43.8011 -98.9036 277° West 343 395 36,000  Level Minneapolis Center
02:58PM 43.8131 -99.0350 277° West 344 396 36,000  Level Minneapolis Center
02:59PM 43.8250 -99.1658 277° West 343 395 36,000  Level Minneapolis Center
03:00PM 43.8378 -99.2975 278° West 344 396 36,000  Level Minneapolis Center
03:01PM 43.8536 -99.4544 278° West 343 395 36,000  Level Minneapolis Center
03:02PM 43.8675 -99.5858 278° West 343 395 36,000  Level Minneapolis Center
03:03PM 43.8819 -99.7172 279° West 344 396 36,000  Level Minneapolis Center
03:04PM 43.8975 -99.8461 280° West 341 392 36,000 -300 Level Minneapolis Center
03:05PM 43.9119 -99.9775 279° West 343 395 35,400 -900 Descending Minneapolis Center
03:06PM 43.9175 -100.1067 273° West 338 389 34,200 -1,320 Descending Minneapolis Center
03:07PM 43.9178 -100.2381 270° West 338 389 32,700 -1,560 Descending Minneapolis Center
03:08PM 43.9211 -100.3719 272° West 343 395 31,100 -1,500 Descending Minneapolis Center
03:09PM 43.9250 -100.5083 272° West 350 403 29,700 -1,500 Descending Minneapolis Center
03:10PM 43.9314 -100.6483 274° West 358 412 28,100 -1,320 Descending Minneapolis Center
03:11PM 43.9322 -100.8186 270° West 363 418 27,000 -600 Descending Minneapolis Center
03:12PM 43.9311 -100.9614 269° West 367 422 27,000  Level Minneapolis Center
03:13PM 43.9294 -101.1050 269° West 369 425 27,000 -60 Level Minneapolis Center
03:14PM 43.9269 -101.2514 269° West 373 429 26,900 -600 Descending Minneapolis Center
03:16PM 43.9267 -101.3961 270° West 375 432 25,800 -1,140 Descending Minneapolis Center
03:16PM 43.9233 -101.5053 268° West 361 415 24,900 -1,680 Descending Denver Center
03:17PM 43.9219 -101.6464 269° West 363 418 22,800 -2,040 Descending Denver Center
03:18PM 43.9300 -101.7850 275° West 360 414 20,700 -2,160 Descending Denver Center
03:19PM 43.9447 -101.8942 281° West 356 410 19,100 -1,980 Descending Denver Center
03:19PM 43.9436 -101.9183 266° West 354 407 18,700 -1,980 Descending Denver Center
03:20PM 43.9567 -102.0381 279° West 336 387 16,900 -2,400 Descending Denver Center
03:21PM 43.9617 -102.1517 274° West 307 353 14,400 -1,920 Descending Denver Center
03:22PM 43.9608 -102.1656 265° West 321 369 14,100 -2,220 Descending Denver Center
03:22PM 43.9692 -102.2675 277° West 289 333 12,200 -2,820 Descending Denver Center
03:23PM 43.9697 -102.3161 271° West 285 328 11,200 -2,100 Descending Denver Center
03:23PM 43.9719 -102.3700 273° West 263 303 10,100 -1,980 Descending Denver Center
03:24PM 43.9711 -102.4150 269° West 272 313 9,200 -1,980 Descending Denver Center
03:24PM 43.9742 -102.4667 275° West 258 297 8,100 -1,980 Descending Denver Center
03:25PM 43.9703 -102.5681 267° West 255 293 6,200 -1,080 Descending Denver Center
03:26PM 43.9694 -102.6597 269° West 246 283 6,000 -420 Descending Denver Center
03:27PM 43.9636 -102.7497 265° West 228 262 5,400 -300 Descending Denver Center
03:28PM 43.9608 -102.8300 267° West 214 246 5,400 -600 Level Denver Center
03:29PM 43.9564 -102.9139 266° West 209 241 4,300 -540 Descending Denver Center
03:30PM 43.9592 -102.9747 274° West 167 192 4,400 -180 Climbing Denver Center
03:31PM 43.9911 -103.0189 315° West 161 185 4,000 -420 Descending Denver Center